createdAt,value
2022-12-08T00:01:35.936Z,4.22
2022-12-08T00:04:05.339Z,4.23
2022-12-08T00:06:54.193Z,4.34
2022-12-08T00:09:24.928Z,4.37
2022-12-08T00:11:56.192Z,4.44
2022-12-08T00:14:26.218Z,4.48
2022-12-08T00:16:54.721Z,4.41
2022-12-08T00:19:23.534Z,4.42
2022-12-08T00:21:53.527Z,4.41
2022-12-08T00:24:22.567Z,4.37
2022-12-08T00:26:50.517Z,4.53
2022-12-08T00:29:19.165Z,4.42
2022-12-08T00:31:47.407Z,4.42
2022-12-08T00:34:16.053Z,4.29
2022-12-08T00:36:44.741Z,4.34
2022-12-08T00:39:15.286Z,4.35
2022-12-08T00:42:00.507Z,4.36
2022-12-08T00:44:28.766Z,4.39
2022-12-08T00:46:57.019Z,4.40
2022-12-08T00:49:25.475Z,4.38
2022-12-08T00:51:53.687Z,4.48
2022-12-08T00:54:24.063Z,4.44
2022-12-08T00:56:52.389Z,4.51
2022-12-08T00:59:20.384Z,4.41
2022-12-08T01:01:49.067Z,4.48
2022-12-08T01:04:19.320Z,4.47
2022-12-08T01:06:47.969Z,4.44
2022-12-08T01:09:17.725Z,4.56
2022-12-08T01:11:47.866Z,4.25
2022-12-08T01:14:16.177Z,4.45
2022-12-08T01:16:45.028Z,4.35
2022-12-08T01:19:15.112Z,4.27
2022-12-08T01:21:44.067Z,4.39
2022-12-08T01:24:13.250Z,4.30
2022-12-08T01:26:41.658Z,4.19
2022-12-08T01:29:12.089Z,4.21
2022-12-08T01:31:40.728Z,4.41
2022-12-08T01:34:09.224Z,4.51
2022-12-08T01:36:38.540Z,4.37
2022-12-08T01:39:08.853Z,4.24
2022-12-08T01:41:38.651Z,4.41
2022-12-08T01:44:39.827Z,4.48
2022-12-08T01:47:09.873Z,4.29
2022-12-08T01:49:38.101Z,4.38
2022-12-08T01:52:12.513Z,4.28
2022-12-08T01:54:45.061Z,4.39
2022-12-08T01:57:15.610Z,4.38
2022-12-08T01:59:49.377Z,4.28
2022-12-08T02:02:18.787Z,4.27
2022-12-08T02:04:46.732Z,4.41
2022-12-08T02:07:17.397Z,4.46
2022-12-08T02:09:46.220Z,4.35
2022-12-08T02:12:14.505Z,4.43
2022-12-08T02:14:42.472Z,4.61
2022-12-08T02:17:28.629Z,4.49
2022-12-08T02:20:17.820Z,4.33
2022-12-08T02:22:55.893Z,4.24
2022-12-08T02:25:34.715Z,4.27
2022-12-08T02:28:19.025Z,4.24
2022-12-08T02:30:55.257Z,4.29
2022-12-08T02:34:00.604Z,4.27
2022-12-08T02:36:36.659Z,4.24
2022-12-08T02:39:12.589Z,4.36
2022-12-08T02:41:46.838Z,4.52
2022-12-08T02:44:23.068Z,4.54
2022-12-08T02:46:55.547Z,4.27
2022-12-08T02:49:29.302Z,4.23
2022-12-08T02:52:07.736Z,4.46
2022-12-08T02:54:37.358Z,4.46
2022-12-08T02:57:18.279Z,4.33
2022-12-08T03:00:03.819Z,4.29
2022-12-08T03:02:46.648Z,4.37
2022-12-08T03:05:32.632Z,4.37
2022-12-08T03:08:09.811Z,4.41
2022-12-08T03:10:43.295Z,4.53
2022-12-08T03:13:14.875Z,4.42
2022-12-08T03:15:46.411Z,4.45
2022-12-08T03:18:17.808Z,4.33
2022-12-08T03:20:47.315Z,4.44
2022-12-08T03:23:18.511Z,4.55
2022-12-08T03:25:51.650Z,4.45
2022-12-08T03:28:19.571Z,4.45
2022-12-08T03:30:50.868Z,4.58
2022-12-08T03:33:24.899Z,4.60
2022-12-08T03:35:54.440Z,4.46
2022-12-08T03:38:23.968Z,4.44
2022-12-08T03:41:05.932Z,4.57
2022-12-08T03:43:34.837Z,4.55
2022-12-08T03:46:03.081Z,4.40
2022-12-08T03:48:31.120Z,4.62
2022-12-08T03:50:58.984Z,4.57
2022-12-08T03:53:28.411Z,4.45
2022-12-08T03:55:56.362Z,4.43
2022-12-08T03:58:24.293Z,4.49
2022-12-08T04:00:52.085Z,4.63
2022-12-08T04:03:20.054Z,4.37
2022-12-08T04:05:48.165Z,4.46
2022-12-08T04:08:16.238Z,4.55
2022-12-08T04:10:45.591Z,4.40
2022-12-08T04:13:13.349Z,4.28
2022-12-08T04:15:41.381Z,4.34
2022-12-08T04:18:09.266Z,4.42
2022-12-08T04:20:40.375Z,4.37
2022-12-08T04:23:08.510Z,4.53
2022-12-08T04:25:37.285Z,4.50
2022-12-08T04:28:07.192Z,4.59
2022-12-08T04:30:35.678Z,4.52
2022-12-08T04:33:04.165Z,4.50
2022-12-08T04:35:32.455Z,4.64
2022-12-08T04:38:00.411Z,4.50
2022-12-08T04:40:28.221Z,4.57
2022-12-08T04:42:56.043Z,4.59
2022-12-08T04:45:25.387Z,4.51
2022-12-08T04:47:53.381Z,4.52
2022-12-08T04:50:21.482Z,4.63
2022-12-08T04:52:49.319Z,4.64
2022-12-08T04:55:17.260Z,4.58
2022-12-08T04:57:45.137Z,4.58
2022-12-08T05:00:14.242Z,4.66
2022-12-08T05:02:43.752Z,4.54
2022-12-08T05:05:11.707Z,4.60
2022-12-08T05:07:39.761Z,4.43
2022-12-08T05:10:09.105Z,4.52
2022-12-08T05:12:37.001Z,4.42
2022-12-08T05:15:05.653Z,4.74
2022-12-08T05:17:33.488Z,4.34
2022-12-08T05:20:03.556Z,4.45
2022-12-08T05:22:31.557Z,4.44
2022-12-08T05:24:59.509Z,4.44
2022-12-08T05:27:27.764Z,4.54
2022-12-08T05:29:55.586Z,4.62
2022-12-08T05:32:23.450Z,4.59
2022-12-08T05:34:51.449Z,4.59
2022-12-08T05:37:20.783Z,4.73
2022-12-08T05:39:48.645Z,4.68
2022-12-08T05:42:21.740Z,4.61
2022-12-08T05:44:52.436Z,4.45
2022-12-08T05:47:20.369Z,4.63
2022-12-08T05:49:48.350Z,4.70
2022-12-08T05:52:17.025Z,4.65
2022-12-08T05:54:46.381Z,4.53
2022-12-08T05:57:14.229Z,4.63
2022-12-08T05:59:42.164Z,4.62
2022-12-08T06:02:10.287Z,4.43
2022-12-08T06:04:38.355Z,4.64
2022-12-08T06:07:06.336Z,4.55
2022-12-08T06:09:34.300Z,4.44
2022-12-08T06:12:03.906Z,4.58
2022-12-08T06:14:31.832Z,4.37
2022-12-08T06:16:59.931Z,4.47
2022-12-08T06:19:27.896Z,4.47
2022-12-08T06:21:55.740Z,4.35
2022-12-08T06:24:23.616Z,4.46
2022-12-08T06:26:51.505Z,4.55
2022-12-08T06:29:20.794Z,4.57
2022-12-08T06:31:48.894Z,4.54
2022-12-08T06:34:16.750Z,4.47
2022-12-08T06:36:44.598Z,4.41
2022-12-08T06:39:12.755Z,4.27
2022-12-08T06:41:54.517Z,4.36
2022-12-08T06:44:24.016Z,4.33
2022-12-08T06:46:51.828Z,4.51
2022-12-08T06:49:19.732Z,4.42
2022-12-08T06:51:47.611Z,4.59
2022-12-08T06:54:15.498Z,4.50
2022-12-08T06:56:43.354Z,4.44
2022-12-08T06:59:11.503Z,4.48
2022-12-08T07:01:40.972Z,4.51
2022-12-08T07:04:08.839Z,4.46
2022-12-08T07:06:36.896Z,4.53
2022-12-08T07:09:04.923Z,4.65
2022-12-08T07:11:32.948Z,4.73
2022-12-08T07:14:02.889Z,4.54
2022-12-08T07:16:30.887Z,4.42
2022-12-08T07:19:00.598Z,4.72
2022-12-08T07:21:28.474Z,4.41
2022-12-08T07:23:58.061Z,4.43
2022-12-08T07:26:26.836Z,4.40
2022-12-08T07:28:54.774Z,4.50
2022-12-08T07:31:25.196Z,4.66
2022-12-08T07:33:54.234Z,4.51
2022-12-08T07:36:24.336Z,4.44
2022-12-08T07:38:53.338Z,4.59
2022-12-08T07:41:23.776Z,4.50
2022-12-08T07:43:52.043Z,4.24
2022-12-08T07:46:23.006Z,4.22
2022-12-08T07:48:52.367Z,4.25
2022-12-08T07:51:20.315Z,3.96
2022-12-08T07:53:54.157Z,4.10
2022-12-08T07:56:23.217Z,3.88
2022-12-08T07:58:51.119Z,3.87
2022-12-08T08:01:25.171Z,3.86
2022-12-08T08:03:54.554Z,3.94
2022-12-08T08:06:23.063Z,3.98
2022-12-08T08:08:53.048Z,3.96
2022-12-08T08:11:22.082Z,4.01
2022-12-08T08:13:50.815Z,4.04
2022-12-08T08:16:19.962Z,4.07
2022-12-08T08:18:48.273Z,3.98
2022-12-08T08:21:43.768Z,4.14
2022-12-08T08:24:06.320Z,4.02
2022-12-08T08:26:34.178Z,4.06
2022-12-08T08:29:02.236Z,4.00
2022-12-08T08:31:30.368Z,4.14
2022-12-08T08:34:06.038Z,4.16
2022-12-08T08:36:34.711Z,4.02
2022-12-08T08:39:02.681Z,4.01
2022-12-08T08:41:32.303Z,4.08
2022-12-08T08:44:00.289Z,4.06
2022-12-08T08:46:28.325Z,3.91
2022-12-08T08:48:56.255Z,3.94
2022-12-08T08:51:24.418Z,3.96
2022-12-08T08:53:52.212Z,3.96
2022-12-08T08:56:20.561Z,3.86
2022-12-08T08:58:50.901Z,4.01
2022-12-08T09:01:21.094Z,3.97
2022-12-08T09:03:49.134Z,3.83
2022-12-08T09:06:17.346Z,3.79
2022-12-08T09:08:45.631Z,3.96
2022-12-08T09:11:14.320Z,3.93
2022-12-08T09:13:42.800Z,3.92
2022-12-08T09:16:13.149Z,4.42
2022-12-08T09:18:41.143Z,4.20
2022-12-08T09:21:11.660Z,3.97
2022-12-08T09:23:40.020Z,3.92
2022-12-08T09:26:08.284Z,4.09
2022-12-08T09:28:36.521Z,4.12
2022-12-08T09:31:05.032Z,4.06
2022-12-08T09:33:34.352Z,4.11
2022-12-08T09:36:04.176Z,4.08
2022-12-08T09:38:32.381Z,4.28
2022-12-08T09:41:02.938Z,4.24
2022-12-08T09:43:59.915Z,4.09
2022-12-08T09:46:31.800Z,4.07
2022-12-08T09:49:03.264Z,4.04
2022-12-08T09:51:37.795Z,4.12
2022-12-08T09:54:09.695Z,4.13
2022-12-08T09:56:38.836Z,4.13
2022-12-08T09:59:17.201Z,4.07
2022-12-08T10:01:45.231Z,4.14
2022-12-08T10:04:23.396Z,4.14
2022-12-08T10:07:01.484Z,4.13
2022-12-08T10:09:39.728Z,4.16
2022-12-08T10:12:17.335Z,4.20
2022-12-08T10:14:55.163Z,3.94
2022-12-08T10:17:27.029Z,4.02
2022-12-08T10:20:01.637Z,4.13
2022-12-08T10:22:39.846Z,3.92
2022-12-08T10:25:18.109Z,4.05
2022-12-08T10:27:49.276Z,4.01
2022-12-08T10:30:20.826Z,3.94
2022-12-08T10:32:51.965Z,4.11
2022-12-08T10:35:23.605Z,4.04
2022-12-08T10:37:57.676Z,4.13
2022-12-08T10:40:28.154Z,4.22
2022-12-08T10:42:58.876Z,4.05
2022-12-08T10:45:29.354Z,4.18
2022-12-08T10:48:02.892Z,4.08
2022-12-08T10:50:35.677Z,4.29
2022-12-08T10:53:13.058Z,4.12
2022-12-08T10:55:44.308Z,4.25
2022-12-08T10:58:35.606Z,4.23
2022-12-08T11:01:08.167Z,4.34
2022-12-08T11:03:39.734Z,4.28
2022-12-08T11:06:16.250Z,4.10
2022-12-08T11:08:51.584Z,4.21
2022-12-08T11:11:25.877Z,4.22
2022-12-08T11:13:57.738Z,4.27
2022-12-08T11:16:25.996Z,4.41
2022-12-08T11:18:58.986Z,4.46
2022-12-08T11:21:37.196Z,4.31
2022-12-08T11:24:23.582Z,4.33
2022-12-08T11:26:55.468Z,4.41
2022-12-08T11:29:23.439Z,4.40
2022-12-08T11:31:55.754Z,4.48
2022-12-08T11:34:33.220Z,4.48
2022-12-08T11:37:04.931Z,4.31
2022-12-08T11:39:36.375Z,4.35
2022-12-08T11:42:08.239Z,4.23
2022-12-08T11:44:42.894Z,4.35
2022-12-08T11:47:19.006Z,4.29
2022-12-08T11:49:50.478Z,4.36
2022-12-08T11:52:27.631Z,4.42
2022-12-08T11:55:00.974Z,4.44
2022-12-08T11:57:30.877Z,4.39
2022-12-08T11:59:59.871Z,4.43
2022-12-08T12:02:30.090Z,4.36
2022-12-08T12:05:03.520Z,4.38
2022-12-08T12:07:52.638Z,4.46
2022-12-08T12:10:37.511Z,4.35
2022-12-08T12:13:14.295Z,4.27
2022-12-08T12:16:16.467Z,4.24
2022-12-08T12:18:47.084Z,4.40
2022-12-08T12:21:20.374Z,4.40
2022-12-08T12:23:55.299Z,4.94
2022-12-08T12:26:26.382Z,4.54
2022-12-08T12:28:59.066Z,4.31
2022-12-08T12:31:31.001Z,4.47
2022-12-08T12:34:13.287Z,4.08
2022-12-08T12:36:53.871Z,4.14
2022-12-08T12:39:29.400Z,3.98
2022-12-08T12:41:59.614Z,4.18
2022-12-08T12:44:43.144Z,3.98
2022-12-08T12:47:35.407Z,3.98
2022-12-08T12:50:09.035Z,4.05
2022-12-08T12:52:47.133Z,3.98
2022-12-08T12:55:52.103Z,3.82
2022-12-08T12:58:41.063Z,4.04
2022-12-08T13:01:46.280Z,3.98
2022-12-08T13:04:14.448Z,4.04
2022-12-08T13:06:45.454Z,3.97
2022-12-08T13:09:23.029Z,4.11
2022-12-08T13:11:55.705Z,3.99
2022-12-08T13:14:32.701Z,4.05
2022-12-08T13:17:02.952Z,3.99
2022-12-08T13:19:34.098Z,4.11
2022-12-08T13:22:02.580Z,4.08
2022-12-08T13:24:35.038Z,4.10
2022-12-08T13:27:35.565Z,4.04
2022-12-08T13:30:50.086Z,4.35
2022-12-08T13:33:24.472Z,4.32
2022-12-08T13:36:06.368Z,3.97
2022-12-08T13:38:37.802Z,3.86
2022-12-08T13:41:13.879Z,3.77
2022-12-08T13:44:10.603Z,3.76
2022-12-08T13:56:51.420Z,3.70
2022-12-08T13:58:21.186Z,3.75
2022-12-08T14:01:03.564Z,3.65
2022-12-08T14:03:32.101Z,3.71
2022-12-08T14:06:15.789Z,3.79
2022-12-08T14:09:06.919Z,3.91
2022-12-08T14:11:37.610Z,3.92
2022-12-08T14:14:08.678Z,3.97
2022-12-08T14:16:40.923Z,3.96
2022-12-08T14:19:18.892Z,3.87
2022-12-08T14:21:54.908Z,3.92
2022-12-08T14:24:23.841Z,3.99
2022-12-08T14:26:54.392Z,4.02
2022-12-08T14:29:40.868Z,3.95
2022-12-08T14:32:22.570Z,3.97
2022-12-08T14:34:59.988Z,3.82
2022-12-08T14:37:31.082Z,3.67
2022-12-08T14:40:02.559Z,3.75
2022-12-08T14:42:31.397Z,4.00
2022-12-08T14:45:02.275Z,3.96
2022-12-08T14:47:33.364Z,3.87
2022-12-08T14:50:02.517Z,3.83
2022-12-08T14:52:31.463Z,3.91
2022-12-08T14:55:00.156Z,3.90
2022-12-08T14:57:36.425Z,3.91
2022-12-08T15:00:12.386Z,4.00
2022-12-08T15:02:47.396Z,3.93
2022-12-08T15:05:18.026Z,3.98
2022-12-08T15:07:49.566Z,3.97
2022-12-08T15:10:26.465Z,4.09
2022-12-08T15:12:59.547Z,4.00
2022-12-08T15:15:27.822Z,3.98
2022-12-08T15:18:05.450Z,3.93
2022-12-08T15:20:41.522Z,3.94
2022-12-08T15:23:21.434Z,3.81
2022-12-08T15:25:49.919Z,3.93
2022-12-08T15:28:21.261Z,3.93
2022-12-08T15:30:51.778Z,3.91
2022-12-08T15:33:21.352Z,3.82
2022-12-08T15:35:50.497Z,3.79
2022-12-08T15:38:21.629Z,3.90
2022-12-08T15:40:49.702Z,3.81
2022-12-08T15:43:17.508Z,3.77
2022-12-08T15:45:58.012Z,3.85
2022-12-08T15:48:31.113Z,3.95
2022-12-08T15:50:59.822Z,3.89
2022-12-08T15:53:27.953Z,3.85
2022-12-08T15:58:59.573Z,3.88
2022-12-08T16:01:28.254Z,3.97
2022-12-08T16:09:39.395Z,4.01
2022-12-08T16:12:57.175Z,3.85
2022-12-08T16:15:50.035Z,4.05
2022-12-08T16:18:15.097Z,3.91
2022-12-08T16:21:07.492Z,4.11
2022-12-08T16:23:48.231Z,4.19
2022-12-08T16:29:07.870Z,4.17
2022-12-08T16:31:35.991Z,4.16
2022-12-08T16:34:03.857Z,4.20
2022-12-08T16:36:33.296Z,4.21
2022-12-08T16:39:01.193Z,4.08
2022-12-08T16:41:46.791Z,4.05
2022-12-08T16:44:14.660Z,4.10
2022-12-08T16:46:42.861Z,4.09
2022-12-08T16:49:11.050Z,4.25
2022-12-08T16:51:43.284Z,4.23
2022-12-08T16:54:11.252Z,4.27
2022-12-08T16:56:39.159Z,4.21
2022-12-08T16:59:07.113Z,4.14
2022-12-08T17:01:35.861Z,4.14
2022-12-08T17:06:53.260Z,4.25
2022-12-08T17:09:21.542Z,4.29
2022-12-08T17:11:49.429Z,4.27
2022-12-08T17:14:17.453Z,4.21
2022-12-08T17:16:46.714Z,4.30
2022-12-08T17:19:15.821Z,4.31
2022-12-08T17:21:44.495Z,4.30
2022-12-08T17:24:18.590Z,4.21
2022-12-08T17:26:49.897Z,4.27
2022-12-08T17:29:18.751Z,4.18
2022-12-08T17:31:46.891Z,4.36
2022-12-08T17:34:15.136Z,4.37
2022-12-08T17:36:43.282Z,4.35
2022-12-08T17:39:18.383Z,4.25
2022-12-08T17:41:47.226Z,4.29
2022-12-08T17:44:17.040Z,4.36
2022-12-08T17:46:52.184Z,4.35
2022-12-08T17:49:22.703Z,4.36
2022-12-08T17:51:53.078Z,4.41
2022-12-08T17:54:22.506Z,4.35
2022-12-08T17:56:50.476Z,4.29
2022-12-08T17:59:19.576Z,4.38
2022-12-08T18:01:47.748Z,4.33
2022-12-08T18:04:16.643Z,4.24
2022-12-08T18:06:44.882Z,4.20
2022-12-08T18:09:12.997Z,4.16
2022-12-08T18:11:43.045Z,4.17
2022-12-08T18:14:12.436Z,4.12
2022-12-08T18:16:42.115Z,4.22
2022-12-08T18:19:11.014Z,4.11
2022-12-08T18:21:39.313Z,4.08
2022-12-08T18:24:08.178Z,4.01
2022-12-08T18:26:36.653Z,3.97
2022-12-08T18:29:05.955Z,4.02
2022-12-08T18:31:34.229Z,3.95
2022-12-08T18:34:02.120Z,3.97
2022-12-08T18:36:30.004Z,3.91
2022-12-08T18:38:57.920Z,3.91
2022-12-08T18:41:26.881Z,3.91
2022-12-08T18:43:55.559Z,3.94
2022-12-08T18:46:25.869Z,3.80
2022-12-08T18:48:54.263Z,3.68
2022-12-08T18:51:24.259Z,3.81
2022-12-08T18:53:53.703Z,3.77
2022-12-08T18:56:24.659Z,3.79
2022-12-08T18:58:52.607Z,3.73
2022-12-08T19:01:20.636Z,3.74
2022-12-08T19:04:19.984Z,3.62
2022-12-08T19:06:40.020Z,3.59
2022-12-08T19:09:08.827Z,3.53
2022-12-08T19:11:36.886Z,3.67
2022-12-08T19:14:05.615Z,3.64
2022-12-08T19:16:33.690Z,3.48
2022-12-08T19:19:03.432Z,3.62
2022-12-08T19:21:31.641Z,3.45
2022-12-08T19:24:00.084Z,3.55
2022-12-08T19:26:29.383Z,3.41
2022-12-08T19:28:58.658Z,3.36
2022-12-08T19:31:27.184Z,3.27
2022-12-08T19:33:58.072Z,3.27
2022-12-08T19:36:27.850Z,3.23
2022-12-08T19:39:13.061Z,3.24
2022-12-08T19:42:00.982Z,3.16
2022-12-08T19:44:47.860Z,3.20
2022-12-08T19:47:16.214Z,3.16
2022-12-08T19:49:44.217Z,3.06
2022-12-08T19:52:13.716Z,3.08
2022-12-08T19:54:41.668Z,3.02
2022-12-08T19:57:10.688Z,3.01
2022-12-08T19:59:39.282Z,3.05
2022-12-08T20:02:07.742Z,2.97
2022-12-08T20:04:35.876Z,2.84
2022-12-08T20:07:04.392Z,2.72
2022-12-08T20:09:33.678Z,2.78
2022-12-08T20:12:01.610Z,2.71
2022-12-08T20:14:29.515Z,2.71
2022-12-08T20:16:57.507Z,2.75
2022-12-08T20:19:25.512Z,2.73
2022-12-08T20:21:53.435Z,2.70
2022-12-08T20:24:21.866Z,2.75
2022-12-08T20:26:51.460Z,2.78
2022-12-08T20:29:19.385Z,2.82
2022-12-08T20:31:47.462Z,2.74
2022-12-08T20:34:16.593Z,2.83
2022-12-08T20:36:44.822Z,2.79
2022-12-08T20:39:14.565Z,2.81
2022-12-08T20:41:42.557Z,3.00
2022-12-08T20:44:12.237Z,2.90
2022-12-08T20:46:44.981Z,2.92
2022-12-08T20:49:15.854Z,2.93
2022-12-08T20:51:44.469Z,2.97
2022-12-08T20:54:12.572Z,3.06
2022-12-08T20:56:47.921Z,2.99
2022-12-08T20:59:18.649Z,2.91
2022-12-08T21:01:46.844Z,2.86
2022-12-08T21:04:15.025Z,2.90
2022-12-08T21:06:43.192Z,2.95
2022-12-08T21:09:11.393Z,2.98
2022-12-08T21:11:39.589Z,2.96
2022-12-08T21:14:08.007Z,3.04
2022-12-08T21:16:37.494Z,3.03
2022-12-08T21:19:06.145Z,3.04
2022-12-08T21:21:34.608Z,3.01
2022-12-08T21:24:03.874Z,3.05
2022-12-08T21:26:32.445Z,2.95
2022-12-08T21:29:00.394Z,3.05
2022-12-08T21:31:31.590Z,3.01
2022-12-08T21:34:02.534Z,3.10
2022-12-08T21:36:31.079Z,3.00
2022-12-08T21:39:00.716Z,3.13
2022-12-08T21:41:47.704Z,3.10
2022-12-08T21:44:18.737Z,2.96
2022-12-08T21:46:46.903Z,3.08
2022-12-08T21:49:16.433Z,3.15
2022-12-08T21:51:44.729Z,3.17
2022-12-08T21:54:18.215Z,3.17
2022-12-08T21:56:47.716Z,3.08
2022-12-08T21:59:16.403Z,3.13
2022-12-08T22:01:45.173Z,3.13
2022-12-08T22:04:13.727Z,3.19
2022-12-08T22:06:43.928Z,3.10
2022-12-08T22:09:13.538Z,3.20
2022-12-08T22:11:42.134Z,3.12
2022-12-08T22:14:14.385Z,3.09
2022-12-08T22:16:43.447Z,3.11
2022-12-08T22:19:12.490Z,2.95
2022-12-08T22:21:42.061Z,3.07
2022-12-08T22:24:10.703Z,2.98
2022-12-08T22:26:38.653Z,3.08
2022-12-08T22:29:06.794Z,3.07
2022-12-08T22:31:34.934Z,3.08
2022-12-08T22:34:02.924Z,3.03
2022-12-08T22:36:30.971Z,3.10
2022-12-08T22:39:00.357Z,2.87
2022-12-08T22:41:28.484Z,2.92
2022-12-08T22:43:56.460Z,2.96
2022-12-08T22:46:25.772Z,3.06
2022-12-08T22:48:55.389Z,2.90
2022-12-08T22:51:23.398Z,3.02
2022-12-08T22:53:51.986Z,3.03
2022-12-08T22:56:21.540Z,3.06
2022-12-08T22:58:49.891Z,3.03
2022-12-08T23:01:24.552Z,3.15
2022-12-08T23:03:52.779Z,3.03
2022-12-08T23:06:21.096Z,3.06
2022-12-08T23:08:49.326Z,3.10
2022-12-08T23:11:17.742Z,2.96
2022-12-08T23:13:47.326Z,2.98
2022-12-08T23:16:15.259Z,2.96
2022-12-08T23:18:44.553Z,2.98
2022-12-08T23:21:15.184Z,3.05
2022-12-08T23:23:43.822Z,3.00
2022-12-08T23:26:17.979Z,3.09
2022-12-08T23:28:47.820Z,3.09
2022-12-08T23:31:16.432Z,3.07
2022-12-08T23:33:44.873Z,2.96
2022-12-08T23:36:13.749Z,3.06
2022-12-08T23:38:42.088Z,3.19
2022-12-08T23:41:13.578Z,3.13
2022-12-08T23:43:45.537Z,3.17
2022-12-08T23:46:16.391Z,3.19
2022-12-08T23:48:44.679Z,3.20
2022-12-08T23:51:13.385Z,3.14
2022-12-08T23:53:41.567Z,3.09
2022-12-08T23:56:11.216Z,3.16
2022-12-08T23:58:40.221Z,3.08
